Wetterdaten: aktuell Dienstag, 22.09.2020 21:34
Datum Zeit Temp. A. Feuchte A. Luftdruck Regen Wind Richtung Richtung Taupunkt Windchill Windben
22.09.2020 21:34 15,5 C 87 % 1009,7 hPa 0,0 l/m 0,0 km/h (0 Bft) N 0 13,3 C 15,5 C 0,0 km/h (0 Bft)
22.09.2020 20:34 16,9 C 85 % 1009,5 hPa 0,0 l/m 0,0 km/h (0 Bft) N 0 14,4 C 16,9 C 0,0 km/h (0 Bft)
22.09.2020 19:34 18,0 C 81 % 1010,0 hPa 0,0 l/m 0,0 km/h (0 Bft) N 0 14,7 C 18,0 C 0,0 km/h (0 Bft)
22.09.2020 18:34 19,5 C 78 % 1010,2 hPa 0,0 l/m 0,0 km/h (0 Bft) N 0 15,6 C 19,5 C 0,0 km/h (0 Bft)
22.09.2020 17:34 21,5 C 72 % 1010,3 hPa 0,0 l/m 0,0 km/h (0 Bft) N 0 16,2 C 21,5 C 0,0 km/h (0 Bft)
22.09.2020 16:34 24,1 C 64 % 1010,6 hPa 0,0 l/m 1,6 km/h (1 Bft) NO 45 16,9 C 24,1 C 1,6 km/h (1 Bft)
22.09.2020 15:34 24,6 C 62 % 1011,4 hPa 0,0 l/m 6,4 km/h (2 Bft) O-SO 112 16,8 C 24,6 C 11,3 km/h (2 Bft)
22.09.2020 14:34 24,7 C 62 % 1011,8 hPa 0,0 l/m 6,4 km/h (2 Bft) NO 45 16,9 C 24,7 C 8,0 km/h (2 Bft)
22.09.2020 13:34 24,6 C 64 % 1012,5 hPa 0,0 l/m 3,2 km/h (1 Bft) O-SO 112 17,3 C 24,6 C 4,8 km/h (1 Bft)
22.09.2020 12:34 23,4 C 69 % 1013,1 hPa 0,0 l/m 4,8 km/h (1 Bft) SO 135 17,4 C 23,4 C 4,8 km/h (1 Bft)
22.09.2020 11:34 22,3 C 73 % 1013,7 hPa 0,0 l/m 1,6 km/h (1 Bft) O 90 17,2 C 22,3 C 3,2 km/h (1 Bft)
22.09.2020 10:34 18,9 C 86 % 1014,4 hPa 0,0 l/m 0,0 km/h (0 Bft) S-SW 202 16,5 C 18,9 C 1,6 km/h (1 Bft)
22.09.2020 09:34 15,6 C 94 % 1014,5 hPa 0,0 l/m 0,0 km/h (0 Bft) N 0 14,6 C 15,6 C 0,0 km/h (0 Bft)
22.09.2020 08:34 13,4 C 94 % 1014,9 hPa 0,0 l/m 0,0 km/h (0 Bft) S-SW 202 12,5 C 13,4 C 1,6 km/h (1 Bft)
22.09.2020 07:34 10,4 C 93 % 1014,9 hPa 0,0 l/m 0,0 km/h (0 Bft) N 0 9,3 C 10,4 C 0,0 km/h (0 Bft)
22.09.2020 06:34 9,4 C 92 % 1015,1 hPa 0,2 l/m 0,0 km/h (0 Bft) N 0 8,2 C 9,4 C 0,0 km/h (0 Bft)
22.09.2020 05:34 9,7 C 92 % 1014,9 hPa 0,0 l/m 0,0 km/h (0 Bft) N 0 8,5 C 9,7 C 0,0 km/h (0 Bft)
22.09.2020 04:34 9,7 C 92 % 1014,9 hPa 0,0 l/m 1,6 km/h (1 Bft) S-SW 202 8,5 C 9,7 C 1,6 km/h (1 Bft)
22.09.2020 03:34 9,8 C 92 % 1015,0 hPa 0,0 l/m 3,2 km/h (1 Bft) S-SW 202 8,6 C 9,8 C 3,2 km/h (1 Bft)
22.09.2020 02:34 10,0 C 91 % 1014,9 hPa 0,0 l/m 0,0 km/h (0 Bft) N 0 8,6 C 10,0 C 0,0 km/h (0 Bft)
22.09.2020 01:34 10,4 C 91 % 1015,3 hPa 0,0 l/m 0,0 km/h (0 Bft) N 0 9,0 C 10,4 C 0,0 km/h (0 Bft)
22.09.2020 00:34 10,9 C 90 % 1015,1 hPa 0,0 l/m 0,0 km/h (0 Bft) N 0 9,3 C 10,9 C 0,0 km/h (0 Bft)
21.09.2020 23:34 11,6 C 90 % 1015,5 hPa 0,0 l/m 0,0 km/h (0 Bft) N 0 10,0 C 11,6 C 0,0 km/h (0 Bft)
21.09.2020 22:34 11,8 C 88 % 1016,0 hPa 0,0 l/m 1,6 km/h (1 Bft) S-SW 202 9,9 C 11,8 C 3,2 km/h (1 Bft)
21.09.2020 22:00 12,8 C 88 % 1016,1 hPa 0,0 l/m 0,0 km/h (0 Bft) NO 45 10,9 C 12,8 C 1,6 km/h (1 Bft)
_ Min-Zeit 06:01 13:55 20:45 - 22:00 - - 06:04 06:04 22:04
Minimum _ 9,3 C 61 % 1009,4 hPa - 0,0 km/h (0 Bft) - - 8,1 C 9,3 C 0,0 km/h (0 Bft)
_ Max-Zeit 14:07 07:56 22:24 06:13 12:47 - - 13:30 14:15 14:28
Maximum _ 25,1 C 94 % 1016,2 hPa 0,2 l/m 9,7 km/h
NO (2 Bft)
- - 18,1 C 25,1 C 14,5 km/h
NO (3 Bft)
Durchschnitt _ 15,9 C 83 % 1013,6 hPa #0,2 l/m 1,0 km/h (0 Bft) S-SW - 12,7 C 15,9 C 2,0 km/h (1 Bft)